sensor_id;sensor_type;location;lat;lon;timestamp;pressure;altitude;pressure_sealevel;temperature;humidity
37486;BME280;23341;50.296;18.960;2023-05-29T00:04:47;49498.53;;;-144.43;69.60
37486;BME280;23341;50.296;18.960;2023-05-29T00:09:53;49498.53;;;-144.43;69.68
37486;BME280;23341;50.296;18.960;2023-05-29T00:14:57;49486.53;;;-144.43;69.93
37486;BME280;23341;50.296;18.960;2023-05-29T00:20:03;49466.56;;;-144.43;70.05
37486;BME280;23341;50.296;18.960;2023-05-29T00:25:11;49490.53;;;-144.43;70.63
37486;BME280;23341;50.296;18.960;2023-05-29T00:30:16;49506.53;;;-144.43;71.33
37486;BME280;23341;50.296;18.960;2023-05-29T00:35:20;49496.53;;;-144.43;71.08
37486;BME280;23341;50.296;18.960;2023-05-29T00:40:26;49508.53;;;-144.43;71.90
37486;BME280;23341;50.296;18.960;2023-05-29T00:45:31;49468.56;;;-144.43;71.86
37486;BME280;23341;50.296;18.960;2023-05-29T00:50:39;49466.56;;;-144.43;72.22
37486;BME280;23341;50.296;18.960;2023-05-29T00:55:45;49452.56;;;-144.43;72.33
37486;BME280;23341;50.296;18.960;2023-05-29T01:00:49;49490.53;;;-144.43;73.46
37486;BME280;23341;50.296;18.960;2023-05-29T01:05:55;49502.53;;;-144.43;73.46
37486;BME280;23341;50.296;18.960;2023-05-29T01:11:08;49496.53;;;-144.43;73.29
37486;BME280;23341;50.296;18.960;2023-05-29T01:16:20;49474.56;;;-144.43;74.08
37486;BME280;23341;50.296;18.960;2023-05-29T01:21:57;49478.53;;;-144.43;73.97
37486;BME280;23341;50.296;18.960;2023-05-29T01:27:08;49502.53;;;-144.43;74.01
37486;BME280;23341;50.296;18.960;2023-05-29T01:32:14;49470.56;;;-144.43;74.14
37486;BME280;23341;50.296;18.960;2023-05-29T01:37:20;49452.56;;;-144.43;74.51
37486;BME280;23341;50.296;18.960;2023-05-29T01:42:27;49514.53;;;-144.43;74.08
37486;BME280;23341;50.296;18.960;2023-05-29T01:47:33;49472.56;;;-144.43;73.82
37486;BME280;23341;50.296;18.960;2023-05-29T01:52:38;49468.56;;;-144.43;74.40
37486;BME280;23341;50.296;18.960;2023-05-29T01:57:45;49504.53;;;-144.43;74.48
37486;BME280;23341;50.296;18.960;2023-05-29T02:02:49;49460.56;;;-144.43;74.70
37486;BME280;23341;50.296;18.960;2023-05-29T02:07:54;49470.56;;;-144.43;75.31
37486;BME280;23341;50.296;18.960;2023-05-29T02:13:00;49482.53;;;-144.43;75.57
37486;BME280;23341;50.296;18.960;2023-05-29T02:18:04;49454.56;;;-144.43;76.21
37486;BME280;23341;50.296;18.960;2023-05-29T02:23:09;49490.53;;;-144.43;75.62
37486;BME280;23341;50.296;18.960;2023-05-29T02:28:15;49502.53;;;-144.43;75.24
37486;BME280;23341;50.296;18.960;2023-05-29T02:33:19;49478.53;;;-144.43;75.67
37486;BME280;23341;50.296;18.960;2023-05-29T02:38:24;49474.56;;;-144.43;75.88
37486;BME280;23341;50.296;18.960;2023-05-29T02:43:30;49530.50;;;-144.43;76.18
37486;BME280;23341;50.296;18.960;2023-05-29T02:48:34;49514.53;;;-144.43;76.31
37486;BME280;23341;50.296;18.960;2023-05-29T02:53:39;49502.53;;;-144.43;76.34
37486;BME280;23341;50.296;18.960;2023-05-29T02:58:44;49486.53;;;-144.43;76.40
37486;BME280;23341;50.296;18.960;2023-05-29T03:03:50;49462.56;;;-144.43;77.12
37486;BME280;23341;50.296;18.960;2023-05-29T03:08:55;49518.53;;;-144.43;77.31
37486;BME280;23341;50.296;18.960;2023-05-29T03:14:03;49538.50;;;-144.43;77.16
37486;BME280;23341;50.296;18.960;2023-05-29T03:19:09;49558.50;;;-144.43;77.81
37486;BME280;23341;50.296;18.960;2023-05-29T03:24:13;49550.50;;;-144.43;77.34
37486;BME280;23341;50.296;18.960;2023-05-29T03:29:20;49534.50;;;-144.43;76.86
37486;BME280;23341;50.296;18.960;2023-05-29T03:34:25;49542.50;;;-144.43;76.87
37486;BME280;23341;50.296;18.960;2023-05-29T03:39:35;49564.50;;;-144.43;76.75
37486;BME280;23341;50.296;18.960;2023-05-29T03:44:43;49554.50;;;-144.43;76.84
37486;BME280;23341;50.296;18.960;2023-05-29T03:49:48;49586.47;;;-144.43;76.77
37486;BME280;23341;50.296;18.960;2023-05-29T03:54:53;49566.50;;;-144.43;76.85
37486;BME280;23341;50.296;18.960;2023-05-29T03:59:59;49600.47;;;-144.43;77.37
37486;BME280;23341;50.296;18.960;2023-05-29T04:05:04;49648.44;;;-144.43;77.03
37486;BME280;23341;50.296;18.960;2023-05-29T04:10:09;49634.44;;;-144.43;76.14
37486;BME280;23341;50.296;18.960;2023-05-29T04:15:15;49640.44;;;-144.43;75.78
37486;BME280;23341;50.296;18.960;2023-05-29T04:20:20;49644.44;;;-144.43;75.71
37486;BME280;23341;50.296;18.960;2023-05-29T04:25:24;49682.41;;;-144.43;75.63
37486;BME280;23341;50.296;18.960;2023-05-29T04:30:31;49698.41;;;-144.43;75.63
37486;BME280;23341;50.296;18.960;2023-05-29T04:35:37;49726.38;;;-144.43;75.55
37486;BME280;23341;50.296;18.960;2023-05-29T04:40:43;49764.38;;;-144.43;74.73
37486;BME280;23341;50.296;18.960;2023-05-29T04:45:53;49790.34;;;-144.43;75.02
37486;BME280;23341;50.296;18.960;2023-05-29T04:50:58;49772.38;;;-144.43;74.57
37486;BME280;23341;50.296;18.960;2023-05-29T04:56:03;49842.31;;;-144.43;72.99
37486;BME280;23341;50.296;18.960;2023-05-29T05:01:08;49768.38;;;-144.43;69.68
37486;BME280;23341;50.296;18.960;2023-05-29T05:06:17;49836.31;;;-144.43;68.34
37486;BME280;23341;50.296;18.960;2023-05-29T05:11:23;49874.31;;;-144.43;67.81
37486;BME280;23341;50.296;18.960;2023-05-29T05:16:30;49888.31;;;-144.43;66.91
37486;BME280;23341;50.296;18.960;2023-05-29T05:21:36;49898.28;;;-144.43;64.90
37486;BME280;23341;50.296;18.960;2023-05-29T05:26:41;49876.31;;;-144.43;60.45
37486;BME280;23341;50.296;18.960;2023-05-29T05:31:47;49878.31;;;-144.43;61.57
37486;BME280;23341;50.296;18.960;2023-05-29T05:36:52;49926.28;;;-144.43;60.24
37486;BME280;23341;50.296;18.960;2023-05-29T05:41:58;50008.25;;;-144.43;59.56
37486;BME280;23341;50.296;18.960;2023-05-29T05:47:21;50082.19;;;-144.43;58.65
37486;BME280;23341;50.296;18.960;2023-05-29T05:52:26;50346.06;;;-144.43;54.97
37486;BME280;23341;50.296;18.960;2023-05-29T05:57:35;50871.88;;;-144.43;45.36
37486;BME280;23341;50.296;18.960;2023-05-29T06:02:41;51277.78;;;-144.43;41.37
37486;BME280;23341;50.296;18.960;2023-05-29T06:08:02;51541.75;;;-144.43;36.03
37486;BME280;23341;50.296;18.960;2023-05-29T06:13:07;51793.72;;;-144.43;35.19
37486;BME280;23341;50.296;18.960;2023-05-29T06:18:21;52199.72;;;-144.43;32.25
37486;BME280;23341;50.296;18.960;2023-05-29T06:23:26;52767.75;;;-144.43;31.14
37486;BME280;23341;50.296;18.960;2023-05-29T06:28:30;52965.81;;;-144.43;30.78
37486;BME280;23341;50.296;18.960;2023-05-29T06:33:37;53089.84;;;-144.43;30.46
37486;BME280;23341;50.296;18.960;2023-05-29T06:38:46;52837.78;;;-144.43;30.12
37486;BME280;23341;50.296;18.960;2023-05-29T06:43:51;52985.81;;;-144.43;29.81
37486;BME280;23341;50.296;18.960;2023-05-29T06:48:58;52845.78;;;-144.43;29.88
37486;BME280;23341;50.296;18.960;2023-05-29T06:54:05;53239.88;;;-144.43;29.85
37486;BME280;23341;50.296;18.960;2023-05-29T06:59:09;53656.03;;;-144.43;28.36
37486;BME280;23341;50.296;18.960;2023-05-29T07:04:16;53027.81;;;-144.43;29.57
37486;BME280;23341;50.296;18.960;2023-05-29T07:09:21;53275.88;;;-144.43;29.46
37486;BME280;23341;50.296;18.960;2023-05-29T07:14:27;53750.06;;;-144.43;28.50
37486;BME280;23341;50.296;18.960;2023-05-29T07:19:33;52957.81;;;-144.43;29.68
37486;BME280;23341;50.296;18.960;2023-05-29T07:24:40;53287.88;;;-144.43;29.09
37486;BME280;23341;50.296;18.960;2023-05-29T07:29:44;53075.84;;;-144.43;29.81
37486;BME280;23341;50.296;18.960;2023-05-29T07:34:50;52605.75;;;-144.43;29.88
37486;BME280;23341;50.296;18.960;2023-05-29T07:39:54;53235.88;;;-144.43;29.26
37486;BME280;23341;50.296;18.960;2023-05-29T07:45:17;53367.91;;;-144.43;28.49
37486;BME280;23341;50.296;18.960;2023-05-29T07:50:23;53459.94;;;-144.43;27.59
37486;BME280;23341;50.296;18.960;2023-05-29T07:55:29;53762.06;;;-144.43;27.81
37486;BME280;23341;50.296;18.960;2023-05-29T08:00:33;54042.19;;;-144.43;27.54
37486;BME280;23341;50.296;18.960;2023-05-29T08:05:40;54058.22;;;-144.43;26.67
37486;BME280;23341;50.296;18.960;2023-05-29T08:10:47;54840.69;;;-144.43;25.29
37486;BME280;23341;50.296;18.960;2023-05-29T08:15:52;54578.50;;;-144.43;25.74
37486;BME280;23341;50.296;18.960;2023-05-29T08:20:58;55066.84;;;-144.43;25.09
37486;BME280;23341;50.296;18.960;2023-05-29T08:26:03;55046.81;;;-144.43;25.47
37486;BME280;23341;50.296;18.960;2023-05-29T08:31:07;54934.75;;;-144.43;24.49
37486;BME280;23341;50.296;18.960;2023-05-29T08:36:14;54806.66;;;-144.43;24.81
37486;BME280;23341;50.296;18.960;2023-05-29T08:41:24;55457.16;;;-144.43;24.23
37486;BME280;23341;50.296;18.960;2023-05-29T08:46:31;55683.34;;;-144.43;23.84
37486;BME280;23341;50.296;18.960;2023-05-29T08:51:40;55565.25;;;-144.43;23.12
37486;BME280;23341;50.296;18.960;2023-05-29T08:56:46;56838.59;;;-144.43;22.16
37486;BME280;23341;50.296;18.960;2023-05-29T09:01:51;56111.78;;;-144.43;22.79
37486;BME280;23341;50.296;18.960;2023-05-29T09:06:57;55651.31;;;-144.43;23.25
37486;BME280;23341;50.296;18.960;2023-05-29T09:12:03;55661.34;;;-144.43;23.65
37486;BME280;23341;50.296;18.960;2023-05-29T09:17:10;54298.34;;;-144.43;24.73
37486;BME280;23341;50.296;18.960;2023-05-29T09:22:16;54146.25;;;-144.43;25.52
37486;BME280;23341;50.296;18.960;2023-05-29T09:27:21;53185.88;;;-144.43;25.04
37486;BME280;23341;50.296;18.960;2023-05-29T09:32:32;52957.81;;;-144.43;26.45
37486;BME280;23341;50.296;18.960;2023-05-29T09:37:41;53105.84;;;-144.43;25.82
37486;BME280;23341;50.296;18.960;2023-05-29T09:42:46;52761.75;;;-144.43;26.61
37486;BME280;23341;50.296;18.960;2023-05-29T09:47:51;52589.75;;;-144.43;27.34
37486;BME280;23341;50.296;18.960;2023-05-29T09:52:58;52219.72;;;-144.43;28.89
37486;BME280;23341;50.296;18.960;2023-05-29T09:58:04;52153.69;;;-144.43;28.49
37486;BME280;23341;50.296;18.960;2023-05-29T10:03:10;51881.72;;;-144.43;29.00
37486;BME280;23341;50.296;18.960;2023-05-29T10:08:18;51703.72;;;-144.43;29.45
37486;BME280;23341;50.296;18.960;2023-05-29T10:27:22;51781.72;;;-144.43;29.86
37486;BME280;23341;50.296;18.960;2023-05-29T10:32:36;51887.72;;;-144.43;30.27
37486;BME280;23341;50.296;18.960;2023-05-29T10:37:44;52123.69;;;-144.43;29.97
37486;BME280;23341;50.296;18.960;2023-05-29T10:42:52;52281.72;;;-144.43;28.81
37486;BME280;23341;50.296;18.960;2023-05-29T10:53:46;52537.72;;;-144.43;28.15
37486;BME280;23341;50.296;18.960;2023-05-29T10:58:55;52603.75;;;-144.43;27.90
37486;BME280;23341;50.296;18.960;2023-05-29T11:09:31;52281.72;;;-144.43;27.98
37486;BME280;23341;50.296;18.960;2023-05-29T11:14:53;52281.72;;;-144.43;28.56
37486;BME280;23341;50.296;18.960;2023-05-29T11:20:02;51553.72;;;-144.43;29.88
37486;BME280;23341;50.296;18.960;2023-05-29T11:25:09;51689.72;;;-144.43;28.63
37486;BME280;23341;50.296;18.960;2023-05-29T11:30:15;51843.72;;;-144.43;29.62
37486;BME280;23341;50.296;18.960;2023-05-29T11:35:22;52117.69;;;-144.43;28.11
37486;BME280;23341;50.296;18.960;2023-05-29T11:40:26;51873.72;;;-144.43;27.67
37486;BME280;23341;50.296;18.960;2023-05-29T11:45:33;52113.69;;;-144.43;28.21
37486;BME280;23341;50.296;18.960;2023-05-29T11:50:38;52115.69;;;-144.43;27.11
37486;BME280;23341;50.296;18.960;2023-05-29T11:55:43;52253.72;;;-144.43;27.45
37486;BME280;23341;50.296;18.960;2023-05-29T12:00:49;51959.72;;;-144.43;28.00
37486;BME280;23341;50.296;18.960;2023-05-29T12:05:54;51887.72;;;-144.43;28.80
37486;BME280;23341;50.296;18.960;2023-05-29T12:10:59;52257.72;;;-144.43;28.50
37486;BME280;23341;50.296;18.960;2023-05-29T12:16:05;52231.72;;;-144.43;28.23
37486;BME280;23341;50.296;18.960;2023-05-29T12:21:10;52477.72;;;-144.43;27.88
37486;BME280;23341;50.296;18.960;2023-05-29T12:26:15;52737.75;;;-144.43;26.37
37486;BME280;23341;50.296;18.960;2023-05-29T12:31:28;53225.88;;;-144.43;26.62
37486;BME280;23341;50.296;18.960;2023-05-29T12:36:33;53209.88;;;-144.43;26.28
37486;BME280;23341;50.296;18.960;2023-05-29T12:41:38;53215.88;;;-144.43;26.09
37486;BME280;23341;50.296;18.960;2023-05-29T12:46:44;53566.00;;;-144.43;25.86
37486;BME280;23341;50.296;18.960;2023-05-29T12:51:49;53984.16;;;-144.43;25.41
37486;BME280;23341;50.296;18.960;2023-05-29T12:56:55;54522.47;;;-144.43;24.42
37486;BME280;23341;50.296;18.960;2023-05-29T13:02:00;55351.06;;;-144.43;23.90
37486;BME280;23341;50.296;18.960;2023-05-29T13:07:06;54648.53;;;-144.43;24.52
37486;BME280;23341;50.296;18.960;2023-05-29T13:12:10;54854.69;;;-144.43;24.03
37486;BME280;23341;50.296;18.960;2023-05-29T13:17:16;55078.84;;;-144.43;23.88
37486;BME280;23341;50.296;18.960;2023-05-29T13:22:21;53157.84;;;-144.43;26.08
37486;BME280;23341;50.296;18.960;2023-05-29T13:27:26;53906.13;;;-144.43;24.91
37486;BME280;23341;50.296;18.960;2023-05-29T13:32:32;54058.22;;;-144.43;24.73
37486;BME280;23341;50.296;18.960;2023-05-29T13:37:37;54438.41;;;-144.43;24.03
37486;BME280;23341;50.296;18.960;2023-05-29T13:42:41;55327.03;;;-144.43;23.85
37486;BME280;23341;50.296;18.960;2023-05-29T13:47:47;54872.69;;;-144.43;23.59
37486;BME280;23341;50.296;18.960;2023-05-29T13:52:52;54266.31;;;-144.43;24.74
37486;BME280;23341;50.296;18.960;2023-05-29T13:57:56;54386.38;;;-144.43;24.40
37486;BME280;23341;50.296;18.960;2023-05-29T14:03:04;54236.31;;;-144.43;24.14
37486;BME280;23341;50.296;18.960;2023-05-29T14:08:09;54622.53;;;-144.43;23.92
37486;BME280;23341;50.296;18.960;2023-05-29T14:13:13;54562.50;;;-144.43;24.00
37486;BME280;23341;50.296;18.960;2023-05-29T14:18:19;55234.97;;;-144.43;23.20
37486;BME280;23341;50.296;18.960;2023-05-29T14:23:24;54098.22;;;-144.43;24.89
37486;BME280;23341;50.296;18.960;2023-05-29T14:28:28;54036.19;;;-144.43;24.66
37486;BME280;23341;50.296;18.960;2023-05-29T14:33:34;54230.28;;;-144.43;24.37
37486;BME280;23341;50.296;18.960;2023-05-29T14:38:39;54192.28;;;-144.43;24.38
37486;BME280;23341;50.296;18.960;2023-05-29T14:43:44;54326.34;;;-144.43;25.21
37486;BME280;23341;50.296;18.960;2023-05-29T14:48:49;54210.28;;;-144.43;24.84
37486;BME280;23341;50.296;18.960;2023-05-29T14:53:54;53317.91;;;-144.43;25.71
37486;BME280;23341;50.296;18.960;2023-05-29T14:58:59;53005.81;;;-144.43;25.84
37486;BME280;23341;50.296;18.960;2023-05-29T15:04:04;53351.91;;;-144.43;26.07
37486;BME280;23341;50.296;18.960;2023-05-29T15:09:09;53281.88;;;-144.43;25.95
37486;BME280;23341;50.296;18.960;2023-05-29T15:14:14;53025.81;;;-144.43;26.17
37486;BME280;23341;50.296;18.960;2023-05-29T15:19:21;53047.81;;;-144.43;25.59
37486;BME280;23341;50.296;18.960;2023-05-29T15:24:26;52789.78;;;-144.43;26.41
37486;BME280;23341;50.296;18.960;2023-05-29T15:29:32;52253.72;;;-144.43;28.16
37486;BME280;23341;50.296;18.960;2023-05-29T15:34:38;51935.69;;;-144.43;28.48
37486;BME280;23341;50.296;18.960;2023-05-29T15:39:43;51891.72;;;-144.43;28.74
37486;BME280;23341;50.296;18.960;2023-05-29T15:44:47;51731.72;;;-144.43;28.61
37486;BME280;23341;50.296;18.960;2023-05-29T15:49:53;51525.75;;;-144.43;29.03
37486;BME280;23341;50.296;18.960;2023-05-29T15:54:58;51321.78;;;-144.43;30.16
37486;BME280;23341;50.296;18.960;2023-05-29T16:00:06;51893.72;;;-144.43;28.68
37486;BME280;23341;50.296;18.960;2023-05-29T16:05:13;51983.69;;;-144.43;27.82
37486;BME280;23341;50.296;18.960;2023-05-29T16:10:18;51755.72;;;-144.43;28.30
37486;BME280;23341;50.296;18.960;2023-05-29T16:15:23;51377.75;;;-144.43;29.63
37486;BME280;23341;50.296;18.960;2023-05-29T16:20:29;51517.75;;;-144.43;29.38
37486;BME280;23341;50.296;18.960;2023-05-29T16:25:33;51823.72;;;-144.43;28.69
37486;BME280;23341;50.296;18.960;2023-05-29T16:30:38;51773.72;;;-144.43;27.94
37486;BME280;23341;50.296;18.960;2023-05-29T16:35:44;51861.72;;;-144.43;27.86
37486;BME280;23341;50.296;18.960;2023-05-29T16:40:52;51605.72;;;-144.43;28.86
37486;BME280;23341;50.296;18.960;2023-05-29T16:45:57;51173.81;;;-144.43;29.71
37486;BME280;23341;50.296;18.960;2023-05-29T16:51:03;51093.81;;;-144.43;31.17
37486;BME280;23341;50.296;18.960;2023-05-29T16:56:07;50937.88;;;-144.43;31.55
37486;BME280;23341;50.296;18.960;2023-05-29T17:01:12;50889.88;;;-144.43;32.52
37486;BME280;23341;50.296;18.960;2023-05-29T17:06:18;50785.91;;;-144.43;33.01
37486;BME280;23341;50.296;18.960;2023-05-29T17:11:23;50787.91;;;-144.43;33.57
37486;BME280;23341;50.296;18.960;2023-05-29T17:16:28;50709.94;;;-144.43;33.44
37486;BME280;23341;50.296;18.960;2023-05-29T17:21:34;50665.94;;;-144.43;33.94
37486;BME280;23341;50.296;18.960;2023-05-29T17:26:39;50671.94;;;-144.43;34.47
37486;BME280;23341;50.296;18.960;2023-05-29T17:31:43;50659.94;;;-144.43;35.15
37486;BME280;23341;50.296;18.960;2023-05-29T17:36:49;50653.94;;;-144.43;35.15
37486;BME280;23341;50.296;18.960;2023-05-29T17:41:53;50611.97;;;-144.43;36.20
37486;BME280;23341;50.296;18.960;2023-05-29T17:46:57;50605.97;;;-144.43;36.12
37486;BME280;23341;50.296;18.960;2023-05-29T17:52:04;50581.97;;;-144.43;36.55
37486;BME280;23341;50.296;18.960;2023-05-29T17:57:09;50569.97;;;-144.43;36.59
37486;BME280;23341;50.296;18.960;2023-05-29T18:02:16;50522.00;;;-144.43;37.11
37486;BME280;23341;50.296;18.960;2023-05-29T18:07:22;50462.03;;;-144.43;37.65
37486;BME280;23341;50.296;18.960;2023-05-29T18:12:27;50466.03;;;-144.43;38.41
37486;BME280;23341;50.296;18.960;2023-05-29T18:17:46;50446.03;;;-144.43;38.27
37486;BME280;23341;50.296;18.960;2023-05-29T18:22:52;50430.03;;;-144.43;39.17
37486;BME280;23341;50.296;18.960;2023-05-29T18:27:56;50338.06;;;-144.43;39.51
37486;BME280;23341;50.296;18.960;2023-05-29T18:33:01;50356.06;;;-144.43;40.62
37486;BME280;23341;50.296;18.960;2023-05-29T18:38:09;50318.09;;;-144.43;40.68
37486;BME280;23341;50.296;18.960;2023-05-29T18:43:15;50294.09;;;-144.43;40.30
37486;BME280;23341;50.296;18.960;2023-05-29T18:48:20;50244.13;;;-144.43;41.52
37486;BME280;23341;50.296;18.960;2023-05-29T18:53:26;50190.16;;;-144.43;42.04
37486;BME280;23341;50.296;18.960;2023-05-29T18:58:30;50182.16;;;-144.43;42.36
37486;BME280;23341;50.296;18.960;2023-05-29T19:03:35;50164.16;;;-144.43;42.74
37486;BME280;23341;50.296;18.960;2023-05-29T19:08:41;50138.16;;;-144.43;43.00
37486;BME280;23341;50.296;18.960;2023-05-29T19:13:45;50110.19;;;-144.43;44.09
37486;BME280;23341;50.296;18.960;2023-05-29T19:18:50;50120.19;;;-144.43;44.36
37486;BME280;23341;50.296;18.960;2023-05-29T19:23:56;50116.19;;;-144.43;45.07
37486;BME280;23341;50.296;18.960;2023-05-29T19:29:00;50078.19;;;-144.43;45.22
37486;BME280;23341;50.296;18.960;2023-05-29T19:34:05;50044.22;;;-144.43;45.52
37486;BME280;23341;50.296;18.960;2023-05-29T19:39:12;50054.22;;;-144.43;46.17
37486;BME280;23341;50.296;18.960;2023-05-29T19:44:19;50038.22;;;-144.43;46.69
37486;BME280;23341;50.296;18.960;2023-05-29T19:49:25;50026.22;;;-144.43;47.19
37486;BME280;23341;50.296;18.960;2023-05-29T19:54:31;49994.25;;;-144.43;47.47
37486;BME280;23341;50.296;18.960;2023-05-29T19:59:35;49974.25;;;-144.43;48.21
37486;BME280;23341;50.296;18.960;2023-05-29T20:04:40;49966.25;;;-144.43;48.26
37486;BME280;23341;50.296;18.960;2023-05-29T20:09:45;49924.28;;;-144.43;49.03
37486;BME280;23341;50.296;18.960;2023-05-29T20:14:50;49922.28;;;-144.43;49.85
37486;BME280;23341;50.296;18.960;2023-05-29T20:19:55;49946.28;;;-144.43;49.98
37486;BME280;23341;50.296;18.960;2023-05-29T20:25:01;49930.28;;;-144.43;49.91
37486;BME280;23341;50.296;18.960;2023-05-29T20:30:07;49882.31;;;-144.43;50.48
37486;BME280;23341;50.296;18.960;2023-05-29T20:35:11;49902.28;;;-144.43;50.88
37486;BME280;23341;50.296;18.960;2023-05-29T20:40:20;49922.28;;;-144.43;52.36
37486;BME280;23341;50.296;18.960;2023-05-29T20:45:25;49920.28;;;-144.43;51.17
37486;BME280;23341;50.296;18.960;2023-05-29T20:50:29;49910.28;;;-144.43;52.21
37486;BME280;23341;50.296;18.960;2023-05-29T20:55:35;49894.28;;;-144.43;52.33
37486;BME280;23341;50.296;18.960;2023-05-29T21:00:39;49864.31;;;-144.43;52.70
37486;BME280;23341;50.296;18.960;2023-05-29T21:05:44;49902.28;;;-144.43;52.97
37486;BME280;23341;50.296;18.960;2023-05-29T21:10:50;49894.28;;;-144.43;53.53
37486;BME280;23341;50.296;18.960;2023-05-29T21:15:54;49892.28;;;-144.43;54.02
37486;BME280;23341;50.296;18.960;2023-05-29T21:20:59;49872.31;;;-144.43;53.76
37486;BME280;23341;50.296;18.960;2023-05-29T21:26:05;49866.31;;;-144.43;53.90
37486;BME280;23341;50.296;18.960;2023-05-29T21:31:09;49842.31;;;-144.43;54.39
37486;BME280;23341;50.296;18.960;2023-05-29T21:36:15;49822.34;;;-144.43;55.15
37486;BME280;23341;50.296;18.960;2023-05-29T21:41:21;49846.31;;;-144.43;55.58
37486;BME280;23341;50.296;18.960;2023-05-29T21:46:25;49790.34;;;-144.43;56.84
37486;BME280;23341;50.296;18.960;2023-05-29T21:51:30;49798.34;;;-144.43;57.40
37486;BME280;23341;50.296;18.960;2023-05-29T21:56:38;49806.34;;;-144.43;58.19
37486;BME280;23341;50.296;18.960;2023-05-29T22:01:43;49788.34;;;-144.43;58.34
37486;BME280;23341;50.296;18.960;2023-05-29T22:06:48;49760.38;;;-144.43;58.28
37486;BME280;23341;50.296;18.960;2023-05-29T22:11:53;49732.38;;;-144.43;58.72
37486;BME280;23341;50.296;18.960;2023-05-29T22:16:58;49748.38;;;-144.43;59.31
37486;BME280;23341;50.296;18.960;2023-05-29T22:22:03;49744.38;;;-144.43;59.53
37486;BME280;23341;50.296;18.960;2023-05-29T22:27:10;49696.41;;;-144.43;60.81
37486;BME280;23341;50.296;18.960;2023-05-29T22:32:14;49752.38;;;-144.43;60.42
37486;BME280;23341;50.296;18.960;2023-05-29T22:37:19;49696.41;;;-144.43;61.07
37486;BME280;23341;50.296;18.960;2023-05-29T22:42:25;49730.38;;;-144.43;61.73
37486;BME280;23341;50.296;18.960;2023-05-29T22:47:30;49726.38;;;-144.43;62.20
37486;BME280;23341;50.296;18.960;2023-05-29T22:52:34;49708.41;;;-144.43;62.25
37486;BME280;23341;50.296;18.960;2023-05-29T22:57:40;49712.41;;;-144.43;62.59
37486;BME280;23341;50.296;18.960;2023-05-29T23:02:44;49720.41;;;-144.43;63.11
37486;BME280;23341;50.296;18.960;2023-05-29T23:07:50;49718.41;;;-144.43;63.34
37486;BME280;23341;50.296;18.960;2023-05-29T23:12:56;49738.38;;;-144.43;64.30
37486;BME280;23341;50.296;18.960;2023-05-29T23:18:01;49708.41;;;-144.43;64.30
37486;BME280;23341;50.296;18.960;2023-05-29T23:23:05;49704.41;;;-144.43;64.95
37486;BME280;23341;50.296;18.960;2023-05-29T23:28:11;49720.41;;;-144.43;64.33
37486;BME280;23341;50.296;18.960;2023-05-29T23:33:16;49772.38;;;-144.43;64.82
37486;BME280;23341;50.296;18.960;2023-05-29T23:38:20;49750.38;;;-144.43;65.16
37486;BME280;23341;50.296;18.960;2023-05-29T23:43:27;49740.38;;;-144.43;65.35
37486;BME280;23341;50.296;18.960;2023-05-29T23:48:31;49772.38;;;-144.43;65.88
37486;BME280;23341;50.296;18.960;2023-05-29T23:53:40;49754.38;;;-144.43;66.23
37486;BME280;23341;50.296;18.960;2023-05-29T23:58:46;49772.38;;;-144.43;65.50
